createdAt,value
2022-12-18T00:02:57.883Z,7.50
2022-12-18T00:05:59.547Z,7.10
2022-12-18T00:09:02.030Z,6.40
2022-12-18T00:15:17.538Z,5.40
2022-12-18T00:18:20.639Z,5.40
2022-12-18T00:21:22.903Z,5.50
2022-12-18T00:24:24.558Z,6.10
2022-12-18T00:27:26.070Z,5.90
2022-12-18T00:30:27.671Z,6.50
2022-12-18T00:33:30.562Z,8.00
2022-12-18T00:36:33.653Z,8.80
2022-12-18T00:39:35.315Z,7.20
2022-12-18T00:42:55.701Z,9.60
2022-12-18T00:45:57.519Z,7.80
2022-12-18T00:48:59.595Z,8.50
2022-12-18T00:52:01.611Z,8.90
2022-12-18T00:55:06.499Z,7.20
2022-12-18T01:01:09.865Z,8.30
2022-12-18T01:04:11.630Z,6.60
2022-12-18T01:07:13.186Z,8.60
2022-12-18T01:10:15.263Z,8.20
2022-12-18T01:13:16.812Z,8.90
2022-12-18T01:16:19.023Z,11.00
2022-12-18T01:19:20.642Z,6.70
2022-12-18T01:22:22.205Z,6.80
2022-12-18T01:25:23.755Z,7.70
2022-12-18T01:28:26.030Z,7.70
2022-12-18T01:31:29.034Z,8.30
2022-12-18T01:34:30.704Z,6.50
2022-12-18T01:37:32.209Z,7.70
2022-12-18T01:40:33.794Z,6.80
2022-12-18T01:43:46.316Z,7.30
2022-12-18T01:46:47.867Z,5.80
2022-12-18T01:49:49.566Z,6.00
2022-12-18T01:52:54.087Z,10.40
2022-12-18T01:55:57.439Z,6.10
2022-12-18T01:58:59.008Z,6.30
2022-12-18T02:02:01.197Z,7.10
2022-12-18T02:05:05.201Z,7.70
2022-12-18T02:08:42.590Z,7.30
2022-12-18T02:11:47.121Z,8.40
2022-12-18T02:15:03.831Z,8.50
2022-12-18T02:18:12.107Z,7.00
2022-12-18T02:21:19.105Z,6.00
2022-12-18T02:24:33.487Z,7.10
2022-12-18T02:27:36.274Z,6.70
2022-12-18T02:30:39.172Z,7.50
2022-12-18T02:33:41.789Z,6.00
2022-12-18T02:36:45.353Z,6.50
2022-12-18T02:39:48.493Z,7.90
2022-12-18T02:42:50.512Z,6.80
2022-12-18T02:45:58.058Z,7.40
2022-12-18T02:49:23.864Z,7.50
2022-12-18T02:52:40.035Z,6.10
2022-12-18T02:56:00.536Z,8.90
2022-12-18T02:59:05.780Z,7.40
2022-12-18T03:02:15.659Z,8.20
2022-12-18T03:05:31.285Z,6.40
2022-12-18T03:08:35.480Z,6.60
2022-12-18T03:11:58.475Z,7.00
2022-12-18T03:15:17.207Z,6.80
2022-12-18T03:18:24.655Z,7.90
2022-12-18T03:21:30.098Z,8.90
2022-12-18T03:24:34.338Z,8.00
2022-12-18T03:27:38.450Z,7.40
2022-12-18T03:30:43.271Z,7.60
2022-12-18T03:33:52.813Z,9.70
2022-12-18T03:36:55.604Z,7.80
2022-12-18T03:39:58.575Z,7.30
2022-12-18T03:43:03.935Z,6.80
2022-12-18T03:46:10.259Z,8.10
2022-12-18T03:49:26.405Z,7.90
2022-12-18T03:52:39.020Z,13.10
2022-12-18T03:55:42.214Z,11.70
2022-12-18T03:58:44.690Z,10.90
2022-12-18T04:01:53.428Z,9.40
2022-12-18T04:04:57.435Z,8.10
2022-12-18T04:07:59.402Z,8.40
2022-12-18T04:11:03.319Z,7.70
2022-12-18T04:14:07.335Z,8.10
2022-12-18T04:17:09.804Z,6.00
2022-12-18T04:20:12.413Z,6.50
2022-12-18T04:23:16.460Z,9.10
2022-12-18T04:26:18.471Z,7.00
2022-12-18T04:29:31.600Z,5.50
2022-12-18T04:32:34.899Z,7.90
2022-12-18T04:35:36.967Z,7.20
2022-12-18T04:38:39.901Z,6.70
2022-12-18T04:41:43.972Z,7.00
2022-12-18T04:44:47.719Z,6.00
2022-12-18T04:47:49.336Z,6.70
2022-12-18T04:50:50.996Z,6.10
2022-12-18T04:53:52.487Z,7.70
2022-12-18T04:56:54.109Z,7.90
2022-12-18T04:59:56.795Z,8.70
2022-12-18T05:02:58.520Z,7.40
2022-12-18T05:06:00.626Z,7.70
2022-12-18T05:09:02.182Z,8.60
2022-12-18T05:12:03.966Z,6.30
2022-12-18T05:15:05.842Z,6.20
2022-12-18T05:18:07.982Z,8.00
2022-12-18T05:21:09.849Z,7.10
2022-12-18T05:24:11.381Z,6.40
2022-12-18T05:27:13.059Z,8.60
2022-12-18T05:30:15.080Z,7.30
2022-12-18T05:33:23.649Z,6.60
2022-12-18T05:36:25.206Z,8.70
2022-12-18T05:39:26.765Z,7.10
2022-12-18T05:42:28.424Z,7.60
2022-12-18T05:45:29.908Z,7.60
2022-12-18T05:48:31.431Z,8.50
2022-12-18T05:51:32.944Z,8.10
2022-12-18T05:54:34.652Z,6.50
2022-12-18T05:57:36.195Z,6.80
2022-12-18T06:00:41.062Z,6.70
2022-12-18T06:03:43.085Z,5.50
2022-12-18T06:06:44.975Z,7.30
2022-12-18T06:09:46.534Z,6.50
2022-12-18T06:12:48.090Z,8.50
2022-12-18T06:15:49.733Z,6.70
2022-12-18T06:18:51.305Z,7.60
2022-12-18T06:21:53.016Z,6.80
2022-12-18T06:24:54.627Z,7.30
2022-12-18T06:27:56.181Z,6.30
2022-12-18T06:30:57.840Z,6.40
2022-12-18T06:33:59.503Z,6.20
2022-12-18T06:37:01.344Z,6.50
2022-12-18T06:40:03.146Z,6.50
2022-12-18T06:43:04.787Z,8.20
2022-12-18T06:46:07.117Z,7.30
2022-12-18T06:49:10.297Z,7.60
2022-12-18T06:52:11.815Z,6.70
2022-12-18T06:55:13.384Z,7.20
2022-12-18T06:58:14.908Z,7.50
2022-12-18T07:01:16.625Z,6.10
2022-12-18T07:04:18.348Z,8.60
2022-12-18T07:07:19.874Z,9.40
2022-12-18T07:10:21.415Z,8.70
2022-12-18T07:13:22.814Z,8.70
2022-12-18T07:16:25.859Z,9.70
2022-12-18T07:19:27.682Z,10.50
2022-12-18T07:22:29.225Z,8.60
2022-12-18T07:25:30.859Z,10.90
2022-12-18T07:28:33.160Z,14.10
2022-12-18T07:31:34.875Z,10.90
2022-12-18T07:34:36.459Z,8.30
2022-12-18T07:37:38.708Z,10.00
2022-12-18T07:40:40.262Z,11.70
2022-12-18T07:43:42.519Z,12.60
2022-12-18T07:46:44.447Z,10.50
2022-12-18T07:49:46.007Z,10.00
2022-12-18T07:52:47.802Z,8.50
2022-12-18T07:56:24.916Z,8.60
2022-12-18T07:59:10.952Z,8.10
2022-12-18T08:02:12.817Z,7.90
2022-12-18T08:05:14.729Z,8.30
2022-12-18T08:08:16.261Z,8.10
2022-12-18T08:11:17.737Z,9.40
2022-12-18T08:14:19.351Z,8.10
2022-12-18T08:17:21.326Z,8.70
2022-12-18T08:20:22.880Z,9.60
2022-12-18T08:23:27.588Z,16.50
2022-12-18T08:26:31.429Z,8.60
2022-12-18T08:29:33.222Z,8.10
2022-12-18T08:32:34.838Z,9.40
2022-12-18T08:35:42.530Z,9.60
2022-12-18T08:38:47.515Z,10.00
2022-12-18T08:42:10.474Z,9.40
2022-12-18T08:45:12.440Z,10.20
2022-12-18T08:48:16.645Z,11.30
2022-12-18T08:51:22.283Z,9.30
2022-12-18T08:54:24.316Z,13.10
2022-12-18T08:57:25.823Z,11.90
2022-12-18T09:00:27.392Z,11.40
2022-12-18T09:03:29.140Z,14.20
2022-12-18T09:06:30.882Z,11.70
2022-12-18T09:09:32.439Z,11.90
2022-12-18T09:12:34.105Z,12.40
2022-12-18T09:15:35.662Z,9.50
2022-12-18T09:18:37.480Z,12.10
2022-12-18T09:21:47.780Z,11.30
2022-12-18T09:24:49.957Z,12.50
2022-12-18T09:27:51.615Z,15.00
2022-12-18T09:30:53.253Z,11.40
2022-12-18T09:33:56.231Z,10.70
2022-12-18T09:36:57.823Z,11.00
2022-12-18T09:39:59.467Z,12.30
2022-12-18T09:43:04.322Z,10.90
2022-12-18T09:46:09.917Z,11.80
2022-12-18T09:49:16.987Z,10.90
2022-12-18T09:52:22.752Z,10.70
2022-12-18T09:55:32.203Z,11.00
2022-12-18T09:58:38.653Z,9.10
2022-12-18T10:01:44.464Z,13.00
2022-12-18T10:04:49.372Z,12.90
2022-12-18T10:11:01.448Z,11.50
2022-12-18T10:14:09.225Z,12.60
2022-12-18T10:17:10.639Z,11.10
2022-12-18T10:20:30.635Z,14.80
2022-12-18T10:23:35.358Z,12.80
2022-12-18T10:26:36.968Z,10.80
2022-12-18T10:29:39.067Z,13.00
2022-12-18T10:32:40.926Z,11.00
2022-12-18T10:35:43.403Z,10.30
2022-12-18T10:38:44.952Z,10.90
2022-12-18T10:41:47.400Z,11.30
2022-12-18T10:45:01.468Z,11.40
2022-12-18T10:48:04.468Z,13.90
2022-12-18T10:51:12.939Z,11.50
2022-12-18T10:54:25.101Z,10.30
2022-12-18T10:57:37.116Z,13.80
2022-12-18T11:00:38.859Z,10.70
2022-12-18T11:03:40.492Z,11.30
2022-12-18T11:06:54.569Z,11.30
2022-12-18T11:10:05.329Z,10.80
2022-12-18T11:13:33.149Z,12.20
2022-12-18T11:16:37.450Z,13.90
2022-12-18T11:19:40.750Z,11.20
2022-12-18T11:22:42.498Z,11.80
2022-12-18T11:25:52.040Z,12.10
2022-12-18T11:29:08.553Z,11.50
2022-12-18T11:32:25.734Z,12.20
2022-12-18T11:38:38.320Z,12.40
2022-12-18T11:42:03.344Z,11.40
2022-12-18T11:45:14.340Z,11.00
2022-12-18T11:48:19.335Z,10.50
2022-12-18T11:51:27.433Z,9.50
2022-12-18T11:54:29.207Z,8.90
2022-12-18T11:57:36.705Z,9.80
2022-12-18T12:00:46.605Z,12.30
2022-12-18T12:04:21.060Z,11.00
2022-12-18T12:07:34.376Z,9.90
2022-12-18T12:10:38.742Z,10.40
2022-12-18T12:13:43.307Z,12.70
2022-12-18T12:17:08.292Z,9.50
2022-12-18T12:20:15.905Z,9.10
2022-12-18T12:23:30.958Z,9.30
2022-12-18T12:26:35.375Z,10.40
2022-12-18T12:32:57.299Z,11.00
2022-12-18T12:35:59.140Z,12.50
2022-12-18T12:39:04.441Z,11.50
2022-12-18T12:42:28.937Z,12.00
2022-12-18T12:45:43.852Z,11.00
2022-12-18T12:48:45.915Z,12.10
2022-12-18T12:51:51.120Z,13.30
2022-12-18T12:54:53.087Z,10.70
2022-12-18T12:57:57.786Z,13.90
2022-12-18T13:04:14.017Z,9.40
2022-12-18T13:07:33.254Z,12.60
2022-12-18T13:10:42.173Z,11.80
2022-12-18T13:14:09.878Z,13.80
2022-12-18T13:17:22.032Z,14.30
2022-12-18T13:20:33.846Z,11.50
2022-12-18T13:23:40.185Z,10.90
2022-12-18T13:26:42.765Z,12.50
2022-12-18T13:29:45.970Z,9.90
2022-12-18T13:32:47.523Z,10.00
2022-12-18T13:35:49.160Z,10.60
2022-12-18T13:39:11.168Z,10.90
2022-12-18T13:42:32.744Z,9.90
2022-12-18T13:45:42.899Z,11.60
2022-12-18T13:48:50.282Z,11.40
2022-12-18T13:51:57.381Z,11.50
2022-12-18T13:55:00.684Z,12.70
2022-12-18T13:58:06.130Z,10.60
2022-12-18T14:01:22.536Z,9.40
2022-12-18T14:04:28.804Z,11.50
2022-12-18T14:07:34.584Z,11.30
2022-12-18T14:10:49.329Z,9.50
2022-12-18T14:13:51.258Z,11.60
2022-12-18T14:16:53.434Z,10.20
2022-12-18T14:19:55.531Z,10.40
2022-12-18T14:22:57.140Z,9.10
2022-12-18T14:26:05.413Z,11.50
2022-12-18T14:29:19.913Z,10.80
2022-12-18T14:32:23.676Z,10.30
2022-12-18T14:35:25.180Z,13.10
2022-12-18T14:38:29.789Z,12.20
2022-12-18T14:41:32.446Z,10.50
2022-12-18T14:44:44.274Z,9.70
2022-12-18T14:47:52.574Z,9.90
2022-12-18T14:51:00.170Z,9.40
2022-12-18T14:54:09.275Z,10.90
2022-12-18T14:57:14.023Z,8.70
2022-12-18T15:00:19.736Z,9.10
2022-12-18T15:03:21.897Z,9.30
2022-12-18T15:06:27.215Z,11.30
2022-12-18T15:09:28.752Z,10.90
2022-12-18T15:12:30.211Z,11.40
2022-12-18T15:15:35.109Z,9.00
2022-12-18T15:18:42.434Z,8.80
2022-12-18T15:21:44.503Z,12.50
2022-12-18T15:24:46.165Z,12.50
2022-12-18T15:27:48.088Z,12.30
2022-12-18T15:31:02.161Z,9.10
2022-12-18T15:34:13.978Z,9.80
2022-12-18T15:37:17.093Z,11.30
2022-12-18T15:40:20.849Z,10.80
2022-12-18T15:43:35.756Z,11.90
2022-12-18T15:46:37.464Z,10.90
2022-12-18T15:49:39.791Z,11.20
2022-12-18T15:52:42.961Z,13.40
2022-12-18T15:56:03.180Z,15.70
2022-12-18T15:59:09.856Z,11.70
2022-12-18T16:02:15.957Z,10.30
2022-12-18T16:05:18.705Z,13.70
2022-12-18T16:08:20.197Z,10.90
2022-12-18T16:11:41.839Z,12.60
2022-12-18T16:14:43.548Z,11.40
2022-12-18T16:17:45.715Z,11.60
2022-12-18T16:20:49.100Z,11.50
2022-12-18T16:23:50.613Z,12.30
2022-12-18T16:26:53.152Z,14.50
2022-12-18T16:29:54.712Z,14.30
2022-12-18T16:32:56.476Z,14.70
2022-12-18T16:35:58.136Z,11.80
2022-12-18T16:38:59.694Z,14.60
2022-12-18T16:42:05.672Z,18.90
2022-12-18T16:45:08.747Z,16.30
2022-12-18T16:48:10.303Z,13.20
2022-12-18T16:51:11.880Z,12.20
2022-12-18T16:54:18.842Z,14.90
2022-12-18T16:57:23.539Z,16.00
2022-12-18T17:00:26.977Z,14.30
2022-12-18T17:03:28.474Z,12.60
2022-12-18T17:06:31.535Z,12.90
2022-12-18T17:09:33.288Z,14.70
2022-12-18T17:12:35.086Z,13.90
2022-12-18T17:15:37.215Z,13.00
2022-12-18T17:18:38.879Z,14.70
2022-12-18T17:21:40.438Z,13.70
2022-12-18T17:24:42.713Z,14.60
2022-12-18T17:27:44.371Z,16.00
2022-12-18T17:30:45.895Z,18.40
2022-12-18T17:33:48.508Z,17.50
2022-12-18T17:36:50.109Z,19.10
2022-12-18T17:39:52.879Z,14.10
2022-12-18T17:42:54.395Z,15.90
2022-12-18T17:45:56.989Z,16.90
2022-12-18T17:49:01.259Z,17.00
2022-12-18T17:52:02.871Z,15.70
2022-12-18T17:55:04.676Z,16.50
2022-12-18T17:58:06.395Z,12.90
2022-12-18T18:01:08.464Z,12.10
2022-12-18T18:04:12.402Z,13.20
2022-12-18T18:07:14.213Z,14.50
2022-12-18T18:10:16.013Z,18.60
2022-12-18T18:13:47.162Z,13.70
2022-12-18T18:16:50.653Z,13.10
2022-12-18T18:19:52.315Z,14.60
2022-12-18T18:22:53.877Z,11.60
2022-12-18T18:25:55.532Z,15.10
2022-12-18T18:29:02.530Z,17.40
2022-12-18T18:32:06.664Z,16.30
2022-12-18T18:35:15.689Z,18.90
2022-12-18T18:38:30.394Z,15.50
2022-12-18T18:41:31.988Z,18.90
2022-12-18T18:44:33.662Z,26.30
2022-12-18T18:47:35.108Z,16.10
2022-12-18T18:50:36.662Z,17.50
2022-12-18T18:53:39.356Z,24.30
2022-12-18T18:57:11.967Z,18.00
2022-12-18T19:00:03.038Z,18.30
2022-12-18T19:03:04.968Z,16.30
2022-12-18T19:06:08.172Z,15.40
2022-12-18T19:09:09.695Z,11.40
2022-12-18T19:12:30.154Z,15.10
2022-12-18T19:15:33.461Z,14.70
2022-12-18T19:18:38.209Z,16.40
2022-12-18T19:21:40.870Z,15.00
2022-12-18T19:24:42.427Z,14.40
2022-12-18T19:27:44.194Z,15.60
2022-12-18T19:30:45.849Z,15.50
2022-12-18T19:33:48.327Z,14.30
2022-12-18T19:36:49.836Z,13.90
2022-12-18T19:39:51.375Z,18.00
2022-12-18T19:42:52.999Z,19.40
2022-12-18T19:45:56.185Z,24.50
2022-12-18T19:48:59.231Z,22.20
2022-12-18T19:52:00.725Z,21.60
2022-12-18T19:55:02.565Z,22.20
2022-12-18T19:58:04.164Z,22.50
2022-12-18T20:01:06.670Z,19.60
2022-12-18T20:04:09.842Z,18.10
2022-12-18T20:07:11.496Z,18.10
2022-12-18T20:10:14.678Z,19.20
2022-12-18T20:13:18.658Z,20.90
2022-12-18T20:16:20.734Z,25.60
2022-12-18T20:19:22.577Z,26.60
2022-12-18T20:22:24.227Z,25.90
2022-12-18T20:25:25.861Z,24.60
2022-12-18T20:28:28.238Z,30.70
2022-12-18T20:31:29.847Z,25.50
2022-12-18T20:34:31.509Z,27.90
2022-12-18T20:37:33.514Z,21.30
2022-12-18T20:40:35.691Z,18.30
2022-12-18T20:43:37.898Z,18.30
2022-12-18T20:46:39.436Z,20.50
2022-12-18T20:49:45.122Z,18.70
2022-12-18T20:52:48.152Z,16.10
2022-12-18T20:55:49.722Z,18.30
2022-12-18T20:58:54.830Z,17.30
2022-12-18T21:01:56.947Z,18.30
2022-12-18T21:04:58.683Z,13.60
2022-12-18T21:08:00.358Z,14.20
2022-12-18T21:11:40.730Z,15.20
2022-12-18T21:14:42.485Z,16.60
2022-12-18T21:17:45.445Z,12.40
2022-12-18T21:20:47.442Z,12.90
2022-12-18T21:23:49.100Z,14.20
2022-12-18T21:26:51.066Z,14.60
2022-12-18T21:29:52.859Z,14.40
2022-12-18T21:32:54.794Z,13.90
2022-12-18T21:35:56.352Z,16.60
2022-12-18T21:38:58.523Z,16.20
2022-12-18T21:42:19.333Z,13.90
2022-12-18T21:45:21.197Z,12.20
2022-12-18T21:48:22.755Z,16.30
2022-12-18T21:51:24.413Z,15.80
2022-12-18T21:54:26.790Z,14.00
2022-12-18T21:57:28.352Z,14.60
2022-12-18T22:00:31.390Z,11.40
2022-12-18T22:03:33.125Z,11.50
2022-12-18T22:06:34.961Z,9.90
2022-12-18T22:09:36.621Z,10.30
2022-12-18T22:12:44.100Z,10.80
2022-12-18T22:15:46.928Z,11.00
2022-12-18T22:18:48.800Z,12.30
2022-12-18T22:21:50.901Z,9.30
2022-12-18T22:24:52.337Z,11.50
2022-12-18T22:28:12.299Z,12.10
2022-12-18T22:31:13.873Z,10.20
2022-12-18T22:34:16.683Z,10.50
2022-12-18T22:37:20.978Z,10.00
2022-12-18T22:40:26.982Z,10.60
2022-12-18T22:43:28.575Z,12.20
2022-12-18T22:46:34.447Z,10.70
2022-12-18T22:49:36.437Z,12.10
2022-12-18T22:52:38.053Z,12.30
2022-12-18T22:55:40.044Z,9.30
2022-12-18T22:58:41.782Z,10.80
2022-12-18T23:01:43.841Z,10.70
2022-12-18T23:04:47.918Z,10.30
2022-12-18T23:07:49.633Z,10.10
2022-12-18T23:10:52.731Z,12.40
2022-12-18T23:13:54.337Z,10.70
2022-12-18T23:16:59.317Z,13.30
2022-12-18T23:20:01.540Z,15.00
2022-12-18T23:23:03.060Z,16.40
2022-12-18T23:26:06.343Z,12.20
2022-12-18T23:29:07.926Z,75.50
2022-12-18T23:32:09.561Z,16.90
2022-12-18T23:35:11.116Z,17.60
2022-12-18T23:38:15.849Z,19.00
2022-12-18T23:41:18.122Z,16.50
2022-12-18T23:44:19.677Z,17.60
2022-12-18T23:47:21.238Z,17.60
2022-12-18T23:50:28.756Z,22.30
2022-12-18T23:53:31.393Z,19.90
2022-12-18T23:56:35.758Z,19.90
2022-12-18T23:59:37.310Z,17.80
